createdAt,value
2019-02-16T22:13:57.165Z,100728.55
2019-02-16T22:15:29.030Z,100731.12
2019-02-16T22:17:00.938Z,100727.00
2019-02-16T22:18:33.110Z,100733.34
2019-02-16T22:20:04.998Z,100729.95
2019-02-16T22:21:36.911Z,100721.36
2019-02-16T22:23:08.786Z,100728.16
2019-02-16T22:24:41.011Z,100727.84
2019-02-16T22:26:12.899Z,100726.62
2019-02-16T22:27:44.807Z,100724.66
2019-02-16T22:29:16.703Z,100724.91
2019-02-16T22:30:48.445Z,100721.39
2019-02-16T22:32:19.731Z,100718.83
2019-02-16T22:33:51.310Z,100721.31
2019-02-16T22:35:22.592Z,100717.11
2019-02-16T22:36:53.888Z,100729.45
2019-02-16T22:38:25.186Z,100728.38
2019-02-16T22:39:56.790Z,100719.41
2019-02-16T22:41:28.076Z,100724.83
2019-02-16T22:42:59.378Z,100720.37
2019-02-16T22:44:30.699Z,100717.66
2019-02-16T22:46:02.268Z,100716.29
2019-02-16T22:47:33.554Z,100714.80
2019-02-16T22:49:04.872Z,100715.25
2019-02-16T22:50:36.155Z,100720.99
2019-02-16T22:52:07.647Z,100713.33
2019-02-16T22:53:38.966Z,100711.68
2019-02-16T22:55:10.262Z,100710.22
2019-02-16T22:56:41.558Z,100710.45
2019-02-16T22:58:13.222Z,100709.44
2019-02-16T22:59:44.507Z,100706.52
2019-02-16T23:01:15.787Z,100711.70
2019-02-16T23:02:47.115Z,100713.30
2019-02-16T23:04:18.653Z,100713.91
2019-02-16T23:05:49.959Z,100707.65
2019-02-16T23:07:21.249Z,100711.91
2019-02-16T23:08:52.576Z,100708.41
2019-02-16T23:10:24.045Z,100705.60
2019-02-16T23:11:55.347Z,100704.45
2019-02-16T23:13:26.636Z,100709.00
2019-02-16T23:14:57.947Z,100713.16
2019-02-16T23:16:29.692Z,100709.50
2019-02-16T23:18:00.982Z,100705.52
2019-02-16T23:19:32.273Z,100707.66
2019-02-16T23:21:03.572Z,100705.83
2019-02-16T23:22:35.161Z,100701.55
2019-02-16T23:24:06.449Z,100700.36
2019-02-16T23:25:37.748Z,100703.88
2019-02-16T23:27:09.063Z,100702.68
2019-02-16T23:28:40.751Z,100698.67
2019-02-16T23:30:12.053Z,100700.81
2019-02-16T23:31:43.361Z,100696.14
2019-02-16T23:33:14.677Z,100694.34
2019-02-16T23:34:46.086Z,100696.02
2019-02-16T23:36:17.388Z,100697.64
2019-02-16T23:37:48.679Z,100698.33
2019-02-16T23:39:19.998Z,100693.78
2019-02-16T23:40:51.670Z,100691.41
2019-02-16T23:42:22.953Z,100699.01
2019-02-16T23:43:54.239Z,100693.80
2019-02-16T23:45:25.570Z,100698.91
2019-02-16T23:46:57.019Z,100696.47
2019-02-16T23:48:28.372Z,100702.00
2019-02-16T23:50:00.020Z,100697.79
2019-02-16T23:51:31.308Z,100701.44
2019-02-16T23:53:02.643Z,100700.95
2019-02-16T23:54:33.957Z,100700.09
2019-02-16T23:56:05.583Z,100702.97
2019-02-16T23:57:36.943Z,100705.56
2019-02-16T23:59:08.858Z,100705.14
